KCNK/CNK METAR and TAF weather

Enter ICAO airport designator
Station Type Date Time Source
KCNK METAR 2018/06/25 01:55 UTC NOAA

KCNK 250155Z AUTO 14006KT CLR 24/18 A2985 RMK AO2 SLP094 T02390183 $


Station Type Date Time Source
KCNK Decoded METAR 2018/06/25 01:55 UTC NOAA

Concordia, Blosser Municipal Airport, KS, United States (KCNK) 39-33-05N 097-39-02W 447M
Jun 24, 2018 - 09:55 PM EDT / 2018.06.25 0155 UTC
Wind: from the SE (140 degrees) at 7 MPH (6 KT):0
Sky conditions: clear
Temperature: 75.0 F (23.9 C)
Dew Point: 64.9 F (18.3 C)
Relative Humidity: 70%
Pressure (altimeter): 29.85 in. Hg (1010 hPa)
ob: KCNK 250155Z AUTO 14006KT CLR 24/18 A2985 RMK AO2 SLP094 T02390183
cycle: 2

Station Type Date Time Source
KCNK TAF UTC NOAA

Error!


Example: see airport list